createdAt,value
2023-06-23T00:02:00.646Z,30.88
2023-06-23T00:04:27.373Z,30.76
2023-06-23T00:06:58.149Z,30.84
2023-06-23T00:09:27.147Z,30.85
2023-06-23T00:11:53.817Z,30.83
2023-06-23T00:14:22.967Z,30.96
2023-06-23T00:16:52.317Z,30.61
2023-06-23T00:19:26.363Z,30.86
2023-06-23T00:21:56.966Z,30.67
2023-06-23T00:24:23.802Z,30.82
2023-06-23T00:26:54.117Z,29.96
2023-06-23T00:29:22.986Z,30.30
2023-06-23T00:31:52.737Z,30.67
2023-06-23T00:34:28.788Z,30.21
2023-06-23T00:36:56.167Z,29.62
2023-06-23T00:39:23.384Z,30.36
2023-06-23T00:41:57.094Z,30.06
2023-06-23T00:44:23.839Z,30.38
2023-06-23T00:46:51.169Z,30.40
2023-06-23T00:49:17.849Z,29.98
2023-06-23T00:51:45.627Z,29.48
2023-06-23T00:54:15.413Z,30.34
2023-06-23T00:56:42.267Z,30.49
2023-06-23T00:59:08.857Z,30.35
2023-06-23T01:01:43.006Z,30.09
2023-06-23T01:04:10.281Z,30.07
2023-06-23T01:07:08.000Z,30.20
2023-06-23T01:09:45.659Z,30.15
2023-06-23T01:12:20.540Z,29.99
2023-06-23T01:15:06.242Z,29.89
2023-06-23T01:18:02.072Z,29.66
2023-06-23T01:20:34.060Z,29.92
2023-06-23T01:23:15.384Z,30.03
2023-06-23T01:26:00.866Z,30.22
2023-06-23T01:28:33.408Z,30.11
2023-06-23T01:31:03.743Z,29.47
2023-06-23T01:33:45.670Z,30.00
2023-06-23T01:36:20.461Z,30.08
2023-06-23T01:38:50.655Z,30.02
2023-06-23T01:41:25.125Z,30.04
2023-06-23T01:44:04.971Z,29.88
2023-06-23T01:46:37.150Z,29.61
2023-06-23T01:49:20.454Z,29.71
2023-06-23T01:51:51.497Z,29.86
2023-06-23T01:54:20.517Z,29.54
2023-06-23T01:56:48.934Z,29.04
2023-06-23T01:59:19.875Z,29.36
2023-06-23T02:01:50.932Z,28.94
2023-06-23T02:04:42.960Z,29.37
2023-06-23T02:07:14.193Z,29.40
2023-06-23T02:09:42.853Z,29.42
2023-06-23T02:12:12.022Z,29.27
2023-06-23T02:14:40.946Z,29.08
2023-06-23T02:17:11.435Z,29.24
2023-06-23T02:19:44.412Z,28.75
2023-06-23T02:22:19.611Z,28.91
2023-06-23T02:24:48.313Z,28.97
2023-06-23T02:27:15.173Z,28.15
2023-06-23T02:29:43.164Z,28.88
2023-06-23T02:32:11.717Z,27.84
2023-06-23T02:34:48.148Z,28.88
2023-06-23T02:37:23.515Z,28.71
2023-06-23T02:39:58.795Z,28.75
2023-06-23T02:42:34.287Z,28.75
2023-06-23T02:45:04.844Z,28.74
2023-06-23T02:47:38.062Z,28.58
2023-06-23T02:50:07.842Z,28.69
2023-06-23T02:52:38.450Z,28.71
2023-06-23T02:55:08.921Z,28.36
2023-06-23T02:57:36.776Z,28.63
2023-06-23T03:00:21.201Z,28.00
2023-06-23T03:03:01.638Z,28.42
2023-06-23T03:05:28.649Z,28.56
2023-06-23T03:07:55.538Z,28.71
2023-06-23T03:10:28.707Z,28.62
2023-06-23T03:12:55.726Z,28.42
2023-06-23T03:15:22.556Z,28.26
2023-06-23T03:18:00.287Z,28.31
2023-06-23T03:20:38.795Z,28.30
2023-06-23T03:23:11.873Z,28.37
2023-06-23T03:25:42.432Z,28.30
2023-06-23T03:28:11.918Z,28.34
2023-06-23T03:30:54.843Z,28.31
2023-06-23T03:33:42.068Z,28.29
2023-06-23T03:36:20.987Z,28.34
2023-06-23T03:39:05.860Z,28.21
2023-06-23T03:41:34.623Z,27.95
2023-06-23T03:44:36.067Z,28.17
2023-06-23T03:47:14.908Z,27.88
2023-06-23T03:49:45.979Z,28.02
2023-06-23T03:52:14.193Z,28.18
2023-06-23T03:54:42.109Z,28.18
2023-06-23T03:57:12.155Z,27.71
2023-06-23T03:59:40.760Z,28.23
2023-06-23T04:02:17.381Z,27.58
2023-06-23T04:04:46.978Z,28.28
2023-06-23T04:07:15.461Z,27.42
2023-06-23T04:09:46.696Z,27.57
2023-06-23T04:12:15.598Z,27.84
2023-06-23T04:14:46.217Z,27.20
2023-06-23T04:17:17.225Z,28.27
2023-06-23T04:19:57.166Z,28.37
2023-06-23T04:22:24.983Z,28.36
2023-06-23T04:24:58.082Z,28.08
2023-06-23T04:27:29.915Z,28.25
2023-06-23T04:30:00.306Z,27.46
2023-06-23T04:32:27.090Z,27.61
2023-06-23T04:34:56.802Z,27.65
2023-06-23T04:37:45.837Z,28.19
2023-06-23T04:40:37.351Z,28.14
2023-06-23T04:43:15.585Z,28.24
2023-06-23T04:45:52.121Z,28.24
2023-06-23T04:48:24.681Z,28.18
2023-06-23T04:50:55.772Z,28.12
2023-06-23T04:53:26.647Z,28.04
2023-06-23T04:56:05.277Z,28.23
2023-06-23T04:58:39.214Z,28.20
2023-06-23T05:01:11.278Z,27.65
2023-06-23T05:03:40.016Z,28.10
2023-06-23T05:06:08.648Z,28.10
2023-06-23T05:08:36.859Z,28.15
2023-06-23T05:11:09.531Z,28.01
2023-06-23T05:13:37.744Z,27.77
2023-06-23T05:16:12.176Z,28.71
2023-06-23T05:18:40.398Z,28.76
2023-06-23T05:21:08.269Z,28.84
2023-06-23T05:23:51.735Z,28.71
2023-06-23T05:26:20.857Z,28.93
2023-06-23T05:28:49.496Z,29.02
2023-06-23T05:31:30.577Z,28.38
2023-06-23T05:33:59.995Z,28.52
2023-06-23T05:36:30.240Z,28.28
2023-06-23T05:39:00.676Z,28.83
2023-06-23T05:41:27.505Z,27.81
2023-06-23T05:43:54.179Z,28.19
2023-06-23T05:46:24.703Z,28.84
2023-06-23T05:49:01.354Z,28.87
2023-06-23T05:51:33.326Z,28.68
2023-06-23T05:54:09.641Z,29.08
2023-06-23T05:56:41.221Z,29.11
2023-06-23T05:59:24.084Z,29.23
2023-06-23T06:01:58.551Z,28.94
2023-06-23T06:04:31.176Z,29.09
2023-06-23T06:06:59.810Z,29.03
2023-06-23T06:09:30.684Z,29.08
2023-06-23T06:11:59.750Z,28.83
2023-06-23T06:14:29.983Z,28.93
2023-06-23T06:17:00.327Z,28.94
2023-06-23T06:19:30.634Z,28.89
2023-06-23T06:22:01.479Z,28.96
2023-06-23T06:24:34.482Z,28.36
2023-06-23T06:27:04.175Z,28.91
2023-06-23T06:29:33.879Z,28.65
2023-06-23T06:32:19.350Z,28.91
2023-06-23T06:34:48.545Z,28.93
2023-06-23T06:37:17.309Z,28.96
2023-06-23T06:39:45.844Z,28.88
2023-06-23T06:42:15.554Z,28.53
2023-06-23T06:44:42.229Z,28.43
2023-06-23T06:47:12.010Z,28.97
2023-06-23T06:49:45.464Z,29.03
2023-06-23T06:52:13.709Z,28.58
2023-06-23T06:54:40.999Z,28.88
2023-06-23T06:57:08.201Z,28.17
2023-06-23T06:59:53.815Z,29.06
2023-06-23T07:02:33.716Z,29.10
2023-06-23T07:05:03.316Z,28.44
2023-06-23T07:07:41.203Z,28.31
2023-06-23T07:10:12.995Z,29.07
2023-06-23T07:12:42.763Z,28.46
2023-06-23T07:15:10.401Z,28.12
2023-06-23T07:17:40.124Z,27.57
2023-06-23T07:20:27.497Z,28.77
2023-06-23T07:22:55.716Z,28.71
2023-06-23T07:25:22.369Z,28.88
2023-06-23T07:27:50.101Z,28.83
2023-06-23T07:30:17.647Z,28.74
2023-06-23T07:32:50.254Z,28.94
2023-06-23T07:35:17.097Z,28.69
2023-06-23T07:37:45.352Z,28.90
2023-06-23T07:40:25.624Z,29.12
2023-06-23T07:42:52.477Z,29.15
2023-06-23T07:45:19.117Z,29.16
2023-06-23T07:47:45.820Z,29.22
2023-06-23T07:50:12.594Z,29.25
2023-06-23T07:52:39.205Z,29.20
2023-06-23T07:55:06.521Z,28.63
2023-06-23T07:57:36.152Z,28.89
2023-06-23T08:00:04.296Z,29.03
2023-06-23T08:02:31.013Z,27.84
2023-06-23T08:04:57.736Z,28.95
2023-06-23T08:07:30.371Z,28.02
2023-06-23T08:09:57.472Z,29.46
2023-06-23T08:12:34.308Z,29.38
2023-06-23T08:15:01.791Z,29.68
2023-06-23T08:17:29.162Z,29.32
2023-06-23T08:19:55.911Z,28.99
2023-06-23T08:22:22.583Z,29.82
2023-06-23T08:24:49.232Z,29.84
2023-06-23T08:27:16.039Z,29.75
2023-06-23T08:29:42.806Z,29.82
2023-06-23T08:32:09.700Z,29.77
2023-06-23T08:34:38.649Z,30.14
2023-06-23T08:37:05.658Z,29.64
2023-06-23T08:39:32.882Z,29.79
2023-06-23T08:42:02.368Z,29.71
2023-06-23T08:44:31.247Z,30.12
2023-06-23T08:47:06.993Z,30.21
2023-06-23T08:49:39.847Z,29.02
2023-06-23T08:52:09.185Z,29.45
2023-06-23T08:54:36.966Z,30.03
2023-06-23T08:57:05.026Z,30.18
2023-06-23T08:59:36.416Z,30.14
2023-06-23T09:02:05.023Z,29.92
2023-06-23T09:04:31.788Z,30.54
2023-06-23T09:07:00.895Z,30.49
2023-06-23T09:09:28.679Z,30.67
2023-06-23T09:11:58.344Z,29.98
2023-06-23T09:14:34.918Z,30.25
2023-06-23T09:17:03.708Z,30.07
2023-06-23T09:19:41.959Z,30.37
2023-06-23T09:22:09.970Z,29.86
2023-06-23T09:24:49.579Z,30.75
2023-06-23T09:27:16.664Z,30.31
2023-06-23T09:30:00.706Z,31.30
2023-06-23T09:32:30.901Z,31.27
2023-06-23T09:34:57.622Z,30.62
2023-06-23T09:37:24.423Z,31.44
2023-06-23T09:39:56.284Z,31.57
2023-06-23T09:42:26.202Z,31.12
2023-06-23T09:44:53.144Z,31.60
2023-06-23T09:47:33.925Z,30.78
2023-06-23T09:50:09.137Z,31.18
2023-06-23T09:52:40.014Z,31.94
2023-06-23T09:55:07.566Z,31.12
2023-06-23T09:57:34.325Z,32.14
2023-06-23T10:00:01.538Z,32.05
2023-06-23T10:02:34.081Z,31.95
2023-06-23T10:05:04.238Z,32.39
2023-06-23T10:07:35.928Z,32.46
2023-06-23T10:10:20.759Z,32.39
2023-06-23T10:12:51.947Z,32.48
2023-06-23T10:15:18.888Z,32.31
2023-06-23T10:17:46.372Z,32.60
2023-06-23T10:20:33.888Z,32.75
2023-06-23T10:23:07.519Z,32.68
2023-06-23T10:25:38.723Z,32.81
2023-06-23T10:28:10.275Z,32.91
2023-06-23T10:30:37.860Z,32.20
2023-06-23T10:33:10.218Z,33.03
2023-06-23T10:35:41.136Z,32.14
2023-06-23T10:38:09.143Z,33.24
2023-06-23T10:40:41.345Z,33.27
2023-06-23T10:43:11.580Z,33.08
2023-06-23T10:45:39.019Z,32.85
2023-06-23T10:48:06.828Z,33.30
2023-06-23T10:50:33.926Z,33.61
2023-06-23T10:53:13.376Z,33.78
2023-06-23T10:55:54.685Z,34.02
2023-06-23T10:58:29.781Z,33.63
2023-06-23T11:01:04.678Z,34.47
2023-06-23T11:03:39.713Z,34.00
2023-06-23T11:06:11.455Z,34.56
2023-06-23T11:08:45.675Z,34.39
2023-06-23T11:11:13.834Z,34.41
2023-06-23T11:13:43.251Z,34.81
2023-06-23T11:16:40.639Z,34.85
2023-06-23T11:19:10.321Z,35.05
2023-06-23T11:21:49.208Z,35.24
2023-06-23T11:24:20.532Z,35.19
2023-06-23T11:27:00.901Z,35.27
2023-06-23T11:29:28.126Z,35.33
2023-06-23T11:32:21.268Z,35.24
2023-06-23T11:34:52.354Z,35.02
2023-06-23T11:37:25.729Z,35.53
2023-06-23T11:39:56.266Z,35.60
2023-06-23T11:42:24.301Z,35.83
2023-06-23T11:44:59.030Z,36.05
2023-06-23T11:47:29.899Z,36.26
2023-06-23T11:50:03.467Z,35.95
2023-06-23T11:52:30.788Z,36.02
2023-06-23T11:55:02.986Z,35.88
2023-06-23T11:57:33.692Z,35.74
2023-06-23T12:00:07.840Z,36.37
2023-06-23T12:02:37.743Z,35.83
2023-06-23T12:05:04.747Z,36.08
2023-06-23T12:07:33.036Z,35.42
2023-06-23T12:09:59.906Z,36.25
2023-06-23T12:12:26.721Z,36.29
2023-06-23T12:15:04.088Z,36.49
2023-06-23T12:17:30.835Z,36.35
2023-06-23T12:19:59.651Z,36.17
2023-06-23T12:22:40.501Z,36.23
2023-06-23T12:25:07.766Z,36.00
2023-06-23T12:27:52.632Z,35.77
2023-06-23T12:30:23.713Z,36.34
2023-06-23T12:32:56.333Z,36.24
2023-06-23T12:35:23.605Z,35.61
2023-06-23T12:37:50.689Z,35.82
2023-06-23T12:40:36.581Z,35.47
2023-06-23T12:43:09.596Z,35.59
2023-06-23T12:45:39.503Z,35.78
2023-06-23T12:48:09.992Z,36.07
2023-06-23T12:50:49.472Z,36.90
2023-06-23T12:53:16.470Z,36.75
2023-06-23T12:55:44.036Z,36.31
2023-06-23T12:58:20.392Z,36.44
2023-06-23T13:00:47.085Z,36.26
2023-06-23T13:03:16.485Z,35.76
2023-06-23T13:05:49.104Z,35.80
2023-06-23T13:08:20.361Z,36.11
2023-06-23T13:10:48.129Z,36.00
2023-06-23T13:13:14.897Z,35.73
2023-06-23T13:15:43.768Z,35.77
2023-06-23T13:18:15.785Z,35.17
2023-06-23T13:20:43.918Z,35.53
2023-06-23T13:23:11.437Z,34.26
2023-06-23T13:26:01.697Z,34.79
2023-06-23T13:28:34.988Z,35.00
2023-06-23T13:31:06.140Z,34.41
2023-06-23T13:33:36.259Z,34.21
2023-06-23T13:36:06.560Z,33.64
2023-06-23T13:38:44.078Z,34.02
2023-06-23T13:41:11.222Z,34.05
2023-06-23T13:43:37.807Z,34.00
2023-06-23T13:46:04.513Z,33.74
2023-06-23T13:48:31.277Z,33.59
2023-06-23T13:51:03.346Z,33.15
2023-06-23T13:53:31.371Z,33.18
2023-06-23T13:55:58.658Z,32.75
2023-06-23T13:58:25.384Z,32.06
2023-06-23T14:00:58.389Z,32.17
2023-06-23T14:03:25.330Z,31.71
2023-06-23T14:05:55.379Z,31.58
2023-06-23T14:08:23.894Z,31.18
2023-06-23T14:10:54.128Z,31.16
2023-06-23T14:13:21.117Z,30.66
2023-06-23T14:15:47.804Z,30.41
2023-06-23T14:18:14.724Z,30.29
2023-06-23T14:20:41.558Z,29.69
2023-06-23T14:23:08.466Z,29.36
2023-06-23T14:25:43.999Z,28.86
2023-06-23T14:28:11.750Z,28.10
2023-06-23T14:30:38.364Z,27.80
2023-06-23T14:33:09.745Z,27.57
2023-06-23T14:35:36.692Z,27.26
2023-06-23T14:38:07.283Z,27.20
2023-06-23T14:40:36.812Z,26.84
2023-06-23T14:43:09.247Z,26.92
2023-06-23T14:45:40.900Z,26.59
2023-06-23T14:48:08.786Z,26.23
2023-06-23T14:50:35.867Z,26.23
2023-06-23T14:53:02.553Z,26.21
2023-06-23T14:55:31.353Z,26.62
2023-06-23T14:57:58.541Z,26.25
2023-06-23T15:00:25.342Z,26.41
2023-06-23T15:02:54.324Z,26.38
2023-06-23T15:05:21.186Z,26.26
2023-06-23T15:07:48.373Z,25.29
2023-06-23T15:10:19.746Z,26.20
2023-06-23T15:12:46.649Z,26.10
2023-06-23T15:15:14.064Z,26.49
2023-06-23T15:17:40.723Z,26.14
2023-06-23T15:20:08.402Z,26.55
2023-06-23T15:22:38.202Z,26.72
2023-06-23T15:25:05.151Z,26.77
2023-06-23T15:27:31.882Z,26.77
2023-06-23T15:29:58.721Z,26.72
2023-06-23T15:32:25.650Z,26.14
2023-06-23T15:35:02.031Z,26.32
2023-06-23T15:37:32.255Z,26.88
2023-06-23T15:39:59.662Z,27.00
2023-06-23T15:42:26.403Z,26.92
2023-06-23T15:44:53.159Z,27.11
2023-06-23T15:47:20.062Z,27.13
2023-06-23T15:49:47.098Z,27.15
2023-06-23T15:52:23.693Z,27.17
2023-06-23T15:54:50.911Z,26.48
2023-06-23T15:57:20.142Z,27.35
2023-06-23T15:59:52.126Z,26.98
2023-06-23T16:02:26.777Z,26.23
2023-06-23T16:04:53.816Z,26.72
2023-06-23T16:07:20.581Z,26.92
2023-06-23T16:09:50.073Z,26.14
2023-06-23T16:12:16.759Z,27.18
2023-06-23T16:14:43.596Z,27.51
2023-06-23T16:17:12.700Z,27.62
2023-06-23T16:19:39.925Z,27.87
2023-06-23T16:22:11.015Z,28.42
2023-06-23T16:24:37.825Z,28.82
2023-06-23T16:27:11.125Z,29.46
2023-06-23T16:29:37.851Z,29.72
2023-06-23T16:32:07.563Z,30.02
2023-06-23T16:34:34.535Z,30.25
2023-06-23T16:37:02.883Z,30.45
2023-06-23T16:39:32.417Z,30.04
2023-06-23T16:42:00.995Z,30.47
2023-06-23T16:44:27.741Z,30.10
2023-06-23T16:46:55.037Z,31.14
2023-06-23T16:49:22.760Z,30.42
2023-06-23T16:51:49.525Z,30.62
2023-06-23T16:54:16.296Z,30.19
2023-06-23T16:56:43.093Z,30.41
2023-06-23T16:59:10.007Z,30.72
2023-06-23T17:01:55.543Z,30.69
2023-06-23T17:04:39.742Z,30.58
2023-06-23T17:07:20.983Z,30.49
2023-06-23T17:09:53.657Z,30.58
2023-06-23T17:12:22.824Z,30.32
2023-06-23T17:15:06.892Z,30.59
2023-06-23T17:17:34.788Z,30.58
2023-06-23T17:20:09.866Z,30.65
2023-06-23T17:22:46.296Z,30.62
2023-06-23T17:25:13.371Z,30.51
2023-06-23T17:27:46.451Z,30.65
2023-06-23T17:30:21.093Z,30.56
2023-06-23T17:33:09.925Z,30.58
2023-06-23T17:35:53.004Z,30.74
2023-06-23T17:38:30.638Z,30.87
2023-06-23T17:41:20.544Z,30.83
2023-06-23T17:43:48.754Z,30.77
2023-06-23T17:46:29.831Z,30.96
2023-06-23T17:49:11.520Z,31.22
2023-06-23T17:51:48.398Z,31.37
2023-06-23T17:54:16.976Z,31.16
2023-06-23T17:56:50.353Z,31.48
2023-06-23T17:59:21.306Z,31.29
2023-06-23T18:02:01.445Z,30.90
2023-06-23T18:04:31.774Z,30.89
2023-06-23T18:07:11.714Z,30.44
2023-06-23T18:09:48.619Z,30.04
2023-06-23T18:12:34.022Z,29.57
2023-06-23T18:15:19.664Z,29.46
2023-06-23T18:17:59.094Z,29.36
2023-06-23T18:20:41.042Z,29.24
2023-06-23T18:23:09.494Z,29.19
2023-06-23T18:25:50.170Z,29.62
2023-06-23T18:28:32.453Z,29.35
2023-06-23T18:31:07.969Z,29.45
2023-06-23T18:33:42.441Z,29.52
2023-06-23T18:36:22.423Z,29.07
2023-06-23T18:38:55.591Z,27.94
2023-06-23T18:41:34.112Z,27.98
2023-06-23T18:44:20.618Z,29.14
2023-06-23T18:46:57.020Z,28.22
2023-06-23T18:49:23.934Z,28.27
2023-06-23T18:51:51.246Z,28.46
2023-06-23T18:54:18.307Z,27.64
2023-06-23T18:56:59.688Z,28.45
2023-06-23T18:59:43.744Z,28.37
2023-06-23T19:02:11.976Z,28.77
2023-06-23T19:04:45.316Z,28.14
2023-06-23T19:07:23.704Z,28.78
2023-06-23T19:10:09.247Z,28.67
2023-06-23T19:12:53.362Z,28.66
2023-06-23T19:15:31.310Z,28.48
2023-06-23T19:17:58.119Z,28.46
2023-06-23T19:20:24.992Z,28.19
2023-06-23T19:22:51.702Z,28.44
2023-06-23T19:25:21.455Z,28.37
2023-06-23T19:27:48.148Z,28.34
2023-06-23T19:30:26.204Z,28.16
2023-06-23T19:33:01.623Z,27.42
2023-06-23T19:35:29.210Z,27.39
2023-06-23T19:38:02.592Z,27.72
2023-06-23T19:40:33.379Z,27.40
2023-06-23T19:43:02.002Z,28.14
2023-06-23T19:45:33.531Z,27.98
2023-06-23T19:48:00.373Z,27.79
2023-06-23T19:50:29.903Z,27.87
2023-06-23T19:52:57.847Z,27.46
2023-06-23T19:55:30.968Z,27.60
2023-06-23T19:58:03.970Z,27.75
2023-06-23T20:00:43.291Z,28.06
2023-06-23T20:03:15.214Z,27.60
2023-06-23T20:05:53.406Z,27.18
2023-06-23T20:11:09.484Z,26.96
2023-06-23T20:13:48.448Z,28.21
2023-06-23T20:16:24.893Z,27.51
2023-06-23T20:19:04.694Z,26.99
2023-06-23T20:21:42.547Z,28.00
2023-06-23T20:24:25.841Z,27.32
2023-06-23T20:26:53.111Z,27.04
2023-06-23T20:29:33.295Z,26.78
2023-06-23T20:32:14.820Z,27.29
2023-06-23T20:34:54.360Z,26.73
2023-06-23T20:37:33.257Z,27.93
2023-06-23T20:40:15.091Z,27.41
2023-06-23T20:42:52.220Z,27.43
2023-06-23T20:45:21.420Z,27.95
2023-06-23T20:47:48.501Z,27.73
2023-06-23T20:50:20.028Z,27.48
2023-06-23T20:52:51.974Z,27.72
2023-06-23T20:55:19.175Z,26.80
2023-06-23T20:57:52.836Z,27.66
2023-06-23T21:00:26.973Z,27.30
2023-06-23T21:02:56.819Z,28.10
2023-06-23T21:05:23.553Z,26.93
2023-06-23T21:07:55.323Z,26.77
2023-06-23T21:10:32.496Z,27.62
2023-06-23T21:12:59.170Z,27.48
2023-06-23T21:15:29.710Z,27.20
2023-06-23T21:17:59.796Z,26.82
2023-06-23T21:20:35.725Z,26.72
2023-06-23T21:23:05.130Z,26.70
2023-06-23T21:25:32.718Z,26.38
2023-06-23T21:28:09.079Z,26.55
2023-06-23T21:30:45.010Z,27.65
2023-06-23T21:33:17.667Z,26.94
2023-06-23T21:35:44.939Z,27.28
2023-06-23T21:38:21.066Z,27.69
2023-06-23T21:40:47.787Z,27.59
2023-06-23T21:43:15.876Z,27.67
2023-06-23T21:45:50.286Z,27.46
2023-06-23T21:48:21.039Z,27.75
2023-06-23T21:50:51.319Z,27.52
2023-06-23T21:53:30.070Z,27.68
2023-06-23T21:56:00.811Z,27.68
2023-06-23T21:58:36.770Z,27.48
2023-06-23T22:01:03.610Z,27.12
2023-06-23T22:03:31.730Z,27.74
2023-06-23T22:06:00.798Z,27.69
2023-06-23T22:08:27.696Z,27.67
2023-06-23T22:11:06.955Z,26.77
2023-06-23T22:13:45.060Z,26.72
2023-06-23T22:16:11.849Z,27.20
2023-06-23T22:18:49.755Z,27.21
2023-06-23T22:21:19.173Z,27.41
2023-06-23T22:23:46.366Z,26.92
2023-06-23T22:26:15.338Z,27.17
2023-06-23T22:28:52.369Z,27.43
2023-06-23T22:31:19.045Z,27.62
2023-06-23T22:33:46.014Z,26.47
2023-06-23T22:36:18.204Z,27.46
2023-06-23T22:38:45.694Z,26.96
2023-06-23T22:41:21.858Z,26.15
2023-06-23T22:43:53.361Z,27.09
2023-06-23T22:46:28.253Z,26.49
2023-06-23T22:48:58.781Z,25.97
2023-06-23T22:51:25.893Z,26.30
2023-06-23T22:53:52.647Z,26.72
2023-06-23T22:56:21.656Z,26.63
2023-06-23T22:58:55.405Z,26.53
2023-06-23T23:01:25.036Z,26.96
2023-06-23T23:03:53.308Z,26.50
2023-06-23T23:06:20.035Z,26.60
2023-06-23T23:08:49.710Z,26.40
2023-06-23T23:11:16.721Z,26.82
2023-06-23T23:13:44.565Z,26.01
2023-06-23T23:16:13.921Z,26.12
2023-06-23T23:18:44.896Z,25.44
2023-06-23T23:21:15.695Z,26.80
2023-06-23T23:23:42.447Z,25.79
2023-06-23T23:26:14.846Z,26.51
2023-06-23T23:28:43.407Z,25.61
2023-06-23T23:31:10.258Z,25.48
2023-06-23T23:33:40.943Z,25.35
2023-06-23T23:36:11.351Z,26.06
2023-06-23T23:38:37.977Z,26.17
2023-06-23T23:41:09.132Z,26.37
2023-06-23T23:43:37.232Z,26.32
2023-06-23T23:46:03.937Z,26.30
2023-06-23T23:48:32.629Z,25.06
2023-06-23T23:51:05.397Z,25.33
2023-06-23T23:53:32.095Z,26.30
2023-06-23T23:55:58.868Z,25.67
2023-06-23T23:58:26.261Z,25.63
